Hardyville, Virginia
Current Conditions -  °F | °C
As of 11:35 AM on Friday 19 Dec 2014 (Local Time) from KW75 Reporting Station
Clear Clear  
Wind Chill: 33°   Ceiling: Unl
Heat Index: 40°   Visibility: 10mi
Dew Point: 25°   Wind: 10mph
Humidity: 56%   Direction: 320°NW
Pressure: 30.15"   Gusts: NA
Location:  37.56°N, 76.37°W
Report Text: KW75 191635Z AUTO 32009KT 10SM CLR 04/M04 A3015 RMK AO1 T00421040
Loading
Personal Weather Stations






























Interactive Weather Map New forecast layout! Learn more

10-Day Weather Forecast

Advertisements
Track Severe Weather on mobile